createdAt,value
2022-11-23T00:01:27.929Z,8.13
2022-11-23T00:03:57.499Z,5.22
2022-11-23T00:06:25.699Z,4.05
2022-11-23T00:08:54.023Z,6.10
2022-11-23T00:11:22.760Z,5.88
2022-11-23T00:13:50.121Z,4.50
2022-11-23T00:16:24.875Z,5.43
2022-11-23T00:18:56.501Z,5.88
2022-11-23T00:21:24.849Z,4.50
2022-11-23T00:23:51.793Z,5.82
2022-11-23T00:26:19.123Z,3.42
2022-11-23T00:28:46.506Z,4.40
2022-11-23T00:31:18.774Z,3.92
2022-11-23T00:33:50.770Z,5.70
2022-11-23T00:36:17.882Z,9.43
2022-11-23T00:38:45.948Z,4.88
2022-11-23T00:41:15.857Z,4.40
2022-11-23T00:43:43.878Z,7.32
2022-11-23T00:46:23.298Z,4.47
2022-11-23T00:48:52.016Z,7.35
2022-11-23T00:51:23.942Z,4.65
2022-11-23T00:53:51.796Z,2.85
2022-11-23T00:56:19.604Z,4.82
2022-11-23T00:58:51.024Z,5.43
2022-11-23T01:01:21.545Z,6.85
2022-11-23T01:03:51.273Z,6.25
2022-11-23T01:06:24.178Z,7.55
2022-11-23T01:08:54.507Z,7.20
2022-11-23T01:11:23.402Z,9.73
2022-11-23T01:13:50.407Z,6.78
2022-11-23T01:16:24.132Z,6.20
2022-11-23T01:18:59.317Z,7.82
2022-11-23T01:21:28.546Z,6.57
2022-11-23T01:23:55.779Z,5.10
2022-11-23T01:26:23.453Z,4.43
2022-11-23T01:28:50.902Z,11.68
2022-11-23T01:31:20.774Z,5.03
2022-11-23T01:33:47.844Z,5.10
2022-11-23T01:36:17.825Z,3.88
2022-11-23T01:38:45.877Z,3.40
2022-11-23T01:41:25.863Z,3.05
2022-11-23T01:43:54.110Z,2.55
2022-11-23T01:46:21.274Z,8.85
2022-11-23T01:49:02.937Z,2.13
2022-11-23T01:51:42.147Z,1.35
2022-11-23T01:54:41.383Z,2.15
2022-11-23T01:57:12.864Z,4.95
2022-11-23T01:59:40.327Z,3.05
2022-11-23T02:02:07.642Z,3.47
2022-11-23T02:04:39.469Z,1.85
2022-11-23T02:07:07.208Z,2.35
2022-11-23T02:09:36.051Z,3.15
2022-11-23T02:12:03.426Z,2.10
2022-11-23T02:14:30.459Z,3.53
2022-11-23T02:17:00.588Z,4.28
2022-11-23T02:19:36.294Z,1.88
2022-11-23T02:22:08.016Z,1.63
2022-11-23T02:24:41.464Z,1.75
2022-11-23T02:27:10.990Z,1.10
2022-11-23T02:29:38.040Z,1.23
2022-11-23T02:32:05.209Z,3.97
2022-11-23T02:34:32.201Z,2.00
2022-11-23T02:37:00.974Z,3.08
2022-11-23T02:39:38.001Z,2.45
2022-11-23T02:42:06.500Z,1.80
2022-11-23T02:45:18.968Z,4.10
2022-11-23T02:47:46.073Z,2.63
2022-11-23T02:50:13.146Z,2.70
2022-11-23T02:52:43.448Z,2.15
2022-11-23T02:55:11.529Z,2.97
2022-11-23T02:57:38.756Z,5.03
2022-11-23T03:00:06.455Z,1.58
2022-11-23T03:02:33.479Z,1.92
2022-11-23T03:05:00.475Z,2.05
2022-11-23T03:07:27.523Z,2.03
2022-11-23T03:09:54.584Z,1.70
2022-11-23T03:12:21.578Z,2.70
2022-11-23T03:14:48.640Z,1.55
2022-11-23T03:17:17.660Z,4.13
2022-11-23T03:19:45.636Z,5.07
2022-11-23T03:22:13.621Z,3.33
2022-11-23T03:24:40.693Z,1.85
2022-11-23T03:27:11.457Z,2.92
2022-11-23T03:29:40.474Z,2.30
2022-11-23T03:32:12.325Z,2.60
2022-11-23T03:34:42.066Z,3.15
2022-11-23T03:37:09.200Z,2.05
2022-11-23T03:39:36.800Z,2.83
2022-11-23T03:42:22.323Z,3.08
2022-11-23T03:44:49.521Z,1.90
2022-11-23T03:47:16.658Z,2.53
2022-11-23T03:49:43.822Z,2.55
2022-11-23T03:52:10.837Z,5.07
2022-11-23T03:54:37.805Z,3.75
2022-11-23T03:57:04.998Z,2.90
2022-11-23T03:59:33.194Z,2.45
2022-11-23T04:02:00.599Z,3.85
2022-11-23T04:04:32.183Z,1.77
2022-11-23T04:07:06.696Z,2.83
2022-11-23T04:09:39.339Z,2.88
2022-11-23T04:12:06.847Z,3.30
2022-11-23T04:14:36.731Z,4.78
2022-11-23T04:17:04.424Z,1.95
2022-11-23T04:19:32.020Z,2.90
2022-11-23T04:22:00.516Z,2.00
2022-11-23T04:24:32.732Z,1.48
2022-11-23T04:27:02.973Z,2.67
2022-11-23T04:29:30.416Z,3.05
2022-11-23T04:31:57.912Z,4.03
2022-11-23T04:34:26.065Z,1.45
2022-11-23T04:36:54.281Z,2.05
2022-11-23T04:39:27.750Z,2.65
2022-11-23T04:42:11.540Z,7.20
2022-11-23T04:44:38.743Z,1.85
2022-11-23T04:47:07.832Z,2.08
2022-11-23T04:49:37.786Z,3.95
2022-11-23T04:52:07.282Z,3.10
2022-11-23T04:54:40.944Z,4.25
2022-11-23T04:57:09.283Z,2.03
2022-11-23T04:59:37.855Z,2.60
2022-11-23T05:02:05.397Z,4.55
2022-11-23T05:04:46.278Z,3.60
2022-11-23T05:07:14.446Z,2.00
2022-11-23T05:09:44.666Z,2.88
2022-11-23T05:12:18.020Z,8.43
2022-11-23T05:14:44.979Z,4.75
2022-11-23T05:17:16.164Z,5.20
2022-11-23T05:19:45.367Z,6.78
2022-11-23T05:22:13.427Z,4.28
2022-11-23T05:24:41.644Z,3.83
2022-11-23T05:27:11.300Z,3.65
2022-11-23T05:29:39.162Z,3.25
2022-11-23T05:32:07.725Z,3.92
2022-11-23T05:34:34.768Z,4.13
2022-11-23T05:37:04.204Z,6.90
2022-11-23T05:39:31.574Z,7.68
2022-11-23T05:42:00.624Z,9.82
2022-11-23T05:44:40.446Z,6.63
2022-11-23T05:47:12.974Z,4.57
2022-11-23T05:49:40.032Z,5.57
2022-11-23T05:52:07.442Z,8.73
2022-11-23T05:54:36.896Z,7.18
2022-11-23T05:57:10.820Z,7.05
2022-11-23T05:59:41.903Z,7.28
2022-11-23T06:02:12.810Z,7.05
2022-11-23T06:04:39.751Z,8.40
2022-11-23T06:07:10.517Z,5.00
2022-11-23T06:09:58.287Z,6.63
2022-11-23T06:12:27.432Z,11.60
2022-11-23T06:14:54.530Z,5.05
2022-11-23T06:17:24.803Z,6.60
2022-11-23T06:19:54.361Z,8.35
2022-11-23T06:22:21.327Z,11.13
2022-11-23T06:24:58.659Z,7.93
2022-11-23T06:27:36.523Z,8.90
2022-11-23T06:30:09.458Z,6.80
2022-11-23T06:32:37.504Z,10.15
2022-11-23T06:35:04.723Z,12.60
2022-11-23T06:37:35.202Z,11.82
2022-11-23T06:40:02.192Z,8.55
2022-11-23T06:42:44.880Z,7.80
2022-11-23T06:45:22.951Z,14.07
2022-11-23T06:47:56.912Z,7.90
2022-11-23T06:50:24.417Z,10.32
2022-11-23T06:52:56.514Z,10.32
2022-11-23T06:55:33.933Z,6.97
2022-11-23T06:58:00.926Z,8.48
2022-11-23T07:00:28.497Z,15.50
2022-11-23T07:02:56.549Z,10.60
2022-11-23T07:05:27.082Z,7.93
2022-11-23T07:07:54.614Z,13.98
2022-11-23T07:10:26.445Z,10.23
2022-11-23T07:13:07.647Z,7.28
2022-11-23T07:15:36.903Z,10.10
2022-11-23T07:18:05.049Z,6.60
2022-11-23T07:20:32.897Z,8.70
2022-11-23T07:23:06.492Z,14.50
2022-11-23T07:25:35.831Z,12.52
2022-11-23T07:28:05.145Z,12.30
2022-11-23T07:30:34.143Z,16.58
2022-11-23T07:33:09.026Z,17.83
2022-11-23T07:35:38.423Z,21.00
2022-11-23T07:38:08.027Z,11.10
2022-11-23T07:40:39.043Z,11.00
2022-11-23T07:43:11.875Z,11.70
2022-11-23T07:45:39.833Z,11.00
2022-11-23T07:48:09.883Z,9.02
2022-11-23T07:50:38.773Z,13.20
2022-11-23T07:53:07.416Z,7.63
2022-11-23T07:55:34.946Z,8.43
2022-11-23T07:58:02.069Z,7.85
2022-11-23T08:00:30.053Z,14.60
2022-11-23T08:05:47.586Z,11.13
2022-11-23T08:08:14.620Z,9.27
2022-11-23T08:10:46.183Z,14.73
2022-11-23T08:13:14.493Z,9.25
2022-11-23T08:15:41.482Z,15.68
2022-11-23T08:18:09.549Z,9.13
2022-11-23T08:20:36.494Z,13.63
2022-11-23T08:23:03.419Z,9.50
2022-11-23T08:25:30.531Z,12.77
2022-11-23T08:27:59.826Z,11.70
2022-11-23T08:30:28.036Z,10.45
2022-11-23T08:32:55.164Z,8.48
2022-11-23T08:35:22.420Z,12.52
2022-11-23T08:37:49.507Z,13.88
2022-11-23T08:40:20.636Z,14.90
2022-11-23T08:42:50.753Z,13.82
2022-11-23T08:45:18.049Z,12.65
2022-11-23T08:47:45.095Z,12.52
2022-11-23T08:50:12.067Z,14.40
2022-11-23T08:52:39.058Z,12.52
2022-11-23T08:55:06.468Z,16.95
2022-11-23T08:57:33.384Z,22.67
2022-11-23T09:00:00.315Z,11.80
2022-11-23T09:02:27.304Z,13.52
2022-11-23T09:04:54.210Z,13.35
2022-11-23T09:07:21.228Z,9.25
2022-11-23T09:09:48.317Z,14.75
2022-11-23T09:12:15.390Z,12.15
2022-11-23T09:14:42.364Z,12.90
2022-11-23T09:17:09.667Z,16.02
2022-11-23T09:19:36.583Z,12.05
2022-11-23T09:22:03.513Z,10.55
2022-11-23T09:24:30.706Z,12.82
2022-11-23T09:26:58.428Z,11.98
2022-11-23T09:29:25.592Z,10.90
2022-11-23T09:31:53.028Z,9.07
2022-11-23T09:34:19.968Z,9.05
2022-11-23T09:36:47.495Z,13.45
2022-11-23T09:39:14.619Z,8.35
2022-11-23T09:42:06.046Z,12.27
2022-11-23T09:45:08.810Z,9.10
2022-11-23T09:48:16.794Z,9.38
2022-11-23T09:50:43.649Z,6.13
2022-11-23T09:53:18.915Z,5.60
2022-11-23T09:55:53.665Z,4.85
2022-11-23T09:58:22.467Z,6.55
2022-11-23T10:01:01.052Z,3.72
2022-11-23T10:03:28.961Z,5.32
2022-11-23T10:06:21.250Z,5.90
2022-11-23T10:08:51.273Z,4.35
2022-11-23T10:11:39.438Z,5.43
2022-11-23T10:14:33.230Z,4.47
2022-11-23T10:20:09.730Z,5.22
2022-11-23T10:22:45.342Z,3.85
2022-11-23T10:25:18.354Z,4.03
2022-11-23T10:27:47.929Z,5.05
2022-11-23T10:30:16.649Z,5.30
2022-11-23T10:33:20.049Z,3.50
2022-11-23T10:35:47.058Z,3.93
2022-11-23T10:38:19.121Z,8.95
2022-11-23T10:41:10.842Z,17.03
2022-11-23T10:44:07.247Z,11.55
2022-11-23T10:46:34.174Z,4.15
2022-11-23T10:49:13.389Z,4.45
2022-11-23T10:51:40.709Z,5.45
2022-11-23T10:54:25.892Z,4.22
2022-11-23T10:56:54.500Z,5.35
2022-11-23T10:59:30.318Z,3.50
2022-11-23T11:02:20.105Z,2.65
2022-11-23T11:04:49.008Z,3.53
2022-11-23T11:07:20.757Z,3.83
2022-11-23T11:10:01.386Z,2.97
2022-11-23T11:12:30.345Z,3.90
2022-11-23T11:15:15.238Z,3.42
2022-11-23T11:17:42.728Z,4.82
2022-11-23T11:20:28.060Z,2.92
2022-11-23T11:22:57.105Z,4.35
2022-11-23T11:25:31.083Z,4.10
2022-11-23T11:27:59.620Z,3.63
2022-11-23T11:30:50.703Z,3.65
2022-11-23T11:33:34.854Z,4.18
2022-11-23T11:36:04.771Z,3.38
2022-11-23T11:38:36.854Z,3.30
2022-11-23T11:41:11.008Z,3.65
2022-11-23T11:43:53.355Z,4.07
2022-11-23T11:46:37.834Z,6.00
2022-11-23T11:49:12.750Z,3.58
2022-11-23T11:52:14.914Z,3.40
2022-11-23T11:55:01.795Z,3.60
2022-11-23T11:57:44.252Z,5.15
2022-11-23T12:00:17.246Z,5.63
2022-11-23T12:02:55.717Z,5.88
2022-11-23T12:05:27.644Z,6.28
2022-11-23T12:08:02.998Z,7.00
2022-11-23T12:10:55.227Z,6.47
2022-11-23T12:13:37.035Z,7.78
2022-11-23T12:16:18.312Z,5.05
2022-11-23T12:19:03.657Z,7.18
2022-11-23T12:21:39.236Z,12.85
2022-11-23T12:24:25.280Z,5.43
2022-11-23T12:27:21.773Z,6.38
2022-11-23T12:30:13.295Z,6.70
2022-11-23T12:33:01.676Z,4.88
2022-11-23T12:35:59.924Z,6.90
2022-11-23T12:38:48.471Z,8.20
2022-11-23T12:41:43.943Z,8.63
2022-11-23T12:44:44.467Z,6.40
2022-11-23T12:47:28.246Z,6.53
2022-11-23T12:52:47.393Z,11.23
2022-11-23T12:55:29.240Z,6.57
2022-11-23T12:58:06.367Z,7.82
2022-11-23T13:00:45.954Z,6.97
2022-11-23T13:03:35.411Z,7.80
2022-11-23T13:08:50.533Z,7.53
2022-11-23T13:11:28.279Z,9.55
2022-11-23T13:14:12.011Z,8.25
2022-11-23T13:17:13.490Z,9.07
2022-11-23T13:19:52.220Z,9.40
2022-11-23T13:22:21.289Z,9.15
2022-11-23T13:25:10.097Z,10.25
2022-11-23T13:27:48.957Z,7.93
2022-11-23T13:30:59.624Z,9.18
2022-11-23T13:33:37.441Z,10.00
2022-11-23T13:36:10.372Z,9.98
2022-11-23T13:38:42.001Z,8.57
2022-11-23T13:41:33.861Z,10.38
2022-11-23T13:44:19.058Z,9.13
2022-11-23T13:47:04.347Z,9.93
2022-11-23T13:49:59.878Z,10.63
2022-11-23T13:52:29.197Z,10.55
2022-11-23T13:55:05.623Z,10.57
2022-11-23T13:57:40.288Z,10.15
2022-11-23T14:00:44.886Z,12.20
2022-11-23T14:03:42.882Z,8.38
2022-11-23T14:06:40.699Z,8.85
2022-11-23T14:09:32.387Z,9.30
2022-11-23T14:11:59.249Z,15.98
2022-11-23T14:14:34.460Z,8.13
2022-11-23T14:17:19.909Z,11.30
2022-11-23T14:20:09.048Z,12.85
2022-11-23T14:22:51.123Z,10.17
2022-11-23T14:25:37.607Z,12.88
2022-11-23T14:28:41.927Z,10.25
2022-11-23T14:31:12.319Z,14.10
2022-11-23T14:34:16.691Z,17.90
2022-11-23T14:37:08.176Z,21.05
2022-11-23T14:39:56.094Z,16.77
2022-11-23T14:42:27.363Z,15.55
2022-11-23T14:44:56.300Z,17.08
2022-11-23T14:47:31.595Z,18.10
2022-11-23T14:49:58.867Z,15.98
2022-11-23T14:52:32.274Z,17.85
2022-11-23T14:55:02.680Z,15.50
2022-11-23T14:57:40.658Z,16.73
2022-11-23T15:00:23.596Z,19.55
2022-11-23T15:02:51.585Z,22.95
2022-11-23T15:05:27.498Z,20.95
2022-11-23T15:08:02.614Z,17.63
2022-11-23T15:10:40.294Z,17.73
2022-11-23T15:13:25.209Z,25.77
2022-11-23T15:15:55.307Z,34.88
2022-11-23T15:18:38.602Z,24.98
2022-11-23T15:21:26.594Z,23.33
2022-11-23T15:23:57.903Z,29.15
2022-11-23T15:29:34.622Z,21.70
2022-11-23T15:34:51.563Z,29.17
2022-11-23T15:37:19.133Z,32.60
2022-11-23T15:39:47.181Z,40.33
2022-11-23T15:42:23.933Z,39.30
2022-11-23T15:44:54.559Z,58.90
2022-11-23T15:47:27.203Z,35.10
2022-11-23T15:50:03.806Z,31.98
2022-11-23T15:52:36.011Z,36.35
2022-11-23T15:55:09.692Z,33.13
2022-11-23T15:57:38.599Z,34.17
2022-11-23T16:00:06.989Z,34.65
2022-11-23T16:02:39.869Z,34.45
2022-11-23T16:05:19.142Z,33.97
2022-11-23T16:08:00.639Z,26.25
2022-11-23T16:10:33.311Z,27.27
2022-11-23T16:13:02.762Z,34.13
2022-11-23T16:15:34.321Z,24.17
2022-11-23T16:18:02.387Z,33.45
2022-11-23T16:20:30.001Z,33.85
2022-11-23T16:23:00.151Z,26.52
2022-11-23T16:25:29.135Z,32.92
2022-11-23T16:28:04.647Z,27.52
2022-11-23T16:30:39.836Z,26.38
2022-11-23T16:33:14.503Z,37.03
2022-11-23T16:35:41.497Z,33.83
2022-11-23T16:38:08.559Z,35.40
2022-11-23T16:40:35.570Z,30.92
2022-11-23T16:43:04.125Z,38.42
2022-11-23T16:45:31.987Z,29.63
2022-11-23T16:48:01.167Z,27.02
2022-11-23T16:50:30.359Z,27.45
2022-11-23T16:53:01.510Z,30.33
2022-11-23T16:55:28.857Z,28.08
2022-11-23T16:57:56.447Z,32.00
2022-11-23T17:00:24.119Z,26.98
2022-11-23T17:02:51.283Z,20.08
2022-11-23T17:05:21.214Z,22.88
2022-11-23T17:07:48.245Z,21.52
2022-11-23T17:10:15.673Z,18.42
2022-11-23T17:12:51.346Z,16.90
2022-11-23T17:15:20.783Z,20.13
2022-11-23T17:17:47.778Z,21.50
2022-11-23T17:20:15.817Z,19.52
2022-11-23T17:22:43.307Z,18.35
2022-11-23T17:25:14.941Z,18.73
2022-11-23T17:27:43.770Z,23.52
2022-11-23T17:30:17.230Z,17.77
2022-11-23T17:32:44.180Z,18.27
2022-11-23T17:35:11.218Z,15.93
2022-11-23T17:37:38.210Z,16.08
2022-11-23T17:40:06.065Z,16.73
2022-11-23T17:42:33.278Z,11.50
2022-11-23T17:45:00.242Z,14.38
2022-11-23T17:47:29.592Z,10.77
2022-11-23T17:49:57.635Z,11.93
2022-11-23T17:52:25.290Z,13.07
2022-11-23T17:54:52.286Z,14.50
2022-11-23T17:57:23.520Z,21.17
2022-11-23T17:59:50.827Z,11.63
2022-11-23T18:02:19.385Z,13.30
2022-11-23T18:04:47.400Z,16.45
2022-11-23T18:07:15.757Z,14.65
2022-11-23T18:09:42.958Z,10.10
2022-11-23T18:12:10.104Z,14.93
2022-11-23T18:14:37.329Z,9.50
2022-11-23T18:17:04.334Z,10.75
2022-11-23T18:19:31.688Z,7.57
2022-11-23T18:21:59.198Z,7.85
2022-11-23T18:24:26.103Z,11.77
2022-11-23T18:26:53.021Z,7.55
2022-11-23T18:29:19.995Z,13.38
2022-11-23T18:31:46.947Z,11.95
2022-11-23T18:34:13.949Z,8.27
2022-11-23T18:36:40.835Z,14.18
2022-11-23T18:39:07.753Z,10.20
2022-11-23T18:41:34.654Z,10.13
2022-11-23T18:44:01.583Z,12.40
2022-11-23T18:46:29.497Z,6.60
2022-11-23T18:48:57.431Z,9.52
2022-11-23T18:51:24.650Z,12.40
2022-11-23T18:53:53.547Z,7.90
2022-11-23T18:56:21.338Z,8.27
2022-11-23T18:58:48.373Z,10.27
2022-11-23T19:01:21.433Z,7.30
2022-11-23T19:03:50.684Z,9.98
2022-11-23T19:06:19.373Z,7.65
2022-11-23T19:08:51.301Z,15.45
2022-11-23T19:11:21.983Z,12.75
2022-11-23T19:13:51.622Z,14.15
2022-11-23T19:16:21.752Z,12.38
2022-11-23T19:18:56.182Z,10.32
2022-11-23T19:21:25.356Z,10.70
2022-11-23T19:23:54.016Z,11.25
2022-11-23T19:26:21.583Z,7.65
2022-11-23T19:28:48.611Z,9.95
2022-11-23T19:31:21.521Z,10.35
2022-11-23T19:33:49.963Z,6.57
2022-11-23T19:36:19.497Z,9.90
2022-11-23T19:38:48.053Z,5.22
2022-11-23T19:41:15.481Z,5.03
2022-11-23T19:43:42.520Z,9.75
2022-11-23T19:46:14.317Z,15.15
2022-11-23T19:48:42.218Z,15.63
2022-11-23T19:51:14.359Z,15.57
2022-11-23T19:53:42.567Z,13.88
2022-11-23T19:56:19.585Z,16.08
2022-11-23T19:58:50.269Z,18.52
2022-11-23T20:01:19.730Z,16.75
2022-11-23T20:03:48.896Z,15.98
2022-11-23T20:06:21.858Z,10.32
2022-11-23T20:11:21.276Z,19.83
2022-11-23T20:13:48.312Z,15.45
2022-11-23T20:16:18.049Z,13.27
2022-11-23T20:18:46.915Z,14.68
2022-11-23T20:21:16.419Z,10.70
2022-11-23T20:23:44.712Z,11.02
2022-11-23T20:26:19.135Z,10.30
2022-11-23T20:28:50.194Z,12.52
2022-11-23T20:31:22.696Z,8.23
2022-11-23T20:33:50.764Z,11.77
2022-11-23T20:36:20.423Z,7.38
2022-11-23T20:38:48.104Z,16.83
2022-11-23T20:41:20.534Z,12.55
2022-11-23T20:43:49.554Z,8.20
2022-11-23T20:46:26.382Z,12.13
2022-11-23T20:49:04.267Z,12.20
2022-11-23T20:51:31.668Z,14.98
2022-11-23T20:53:59.346Z,11.20
2022-11-23T20:56:27.446Z,10.50
2022-11-23T20:58:57.001Z,15.00
2022-11-23T21:01:24.113Z,7.00
2022-11-23T21:03:53.769Z,12.88
2022-11-23T21:06:21.597Z,13.77
2022-11-23T21:08:50.366Z,8.57
2022-11-23T21:11:36.788Z,12.20
2022-11-23T21:14:11.199Z,14.18
2022-11-23T21:16:58.633Z,8.00
2022-11-23T21:19:31.344Z,6.33
2022-11-23T21:22:02.970Z,8.00
2022-11-23T21:24:30.068Z,9.43
2022-11-23T21:26:57.181Z,10.75
2022-11-23T21:29:24.213Z,11.52
2022-11-23T21:31:51.366Z,7.85
2022-11-23T21:34:21.172Z,7.50
2022-11-23T21:36:49.237Z,8.80
2022-11-23T21:39:16.852Z,7.85
2022-11-23T21:41:44.609Z,8.15
2022-11-23T21:44:12.087Z,12.43
2022-11-23T21:46:40.796Z,8.05
2022-11-23T21:49:08.474Z,12.27
2022-11-23T21:51:36.220Z,6.43
2022-11-23T21:54:06.478Z,8.35
2022-11-23T21:56:34.621Z,7.20
2022-11-23T21:59:02.072Z,13.23
2022-11-23T22:01:31.160Z,7.65
2022-11-23T22:04:02.851Z,11.65
2022-11-23T22:06:30.336Z,10.95
2022-11-23T22:08:59.880Z,16.23
2022-11-23T22:11:29.111Z,14.10
2022-11-23T22:13:57.573Z,9.35
2022-11-23T22:16:30.094Z,13.98
2022-11-23T22:18:57.648Z,9.00
2022-11-23T22:21:27.104Z,10.70
2022-11-23T22:23:54.383Z,9.75
2022-11-23T22:26:22.033Z,8.10
2022-11-23T22:28:50.923Z,9.23
2022-11-23T22:31:25.604Z,7.43
2022-11-23T22:33:53.553Z,9.50
2022-11-23T22:36:23.250Z,9.27
2022-11-23T22:39:01.579Z,14.80
2022-11-23T22:41:30.013Z,13.45
2022-11-23T22:43:57.000Z,11.18
2022-11-23T22:46:25.306Z,13.10
2022-11-23T22:48:53.356Z,12.85
2022-11-23T22:51:22.682Z,16.23
2022-11-23T22:53:58.312Z,7.47
2022-11-23T22:56:26.532Z,4.35
2022-11-23T22:58:53.762Z,8.35
2022-11-23T23:01:23.411Z,9.85
2022-11-23T23:03:58.978Z,8.88
2022-11-23T23:06:28.486Z,10.10
2022-11-23T23:08:58.108Z,12.95
2022-11-23T23:11:28.019Z,8.07
2022-11-23T23:13:55.271Z,10.48
2022-11-23T23:16:22.682Z,10.90
2022-11-23T23:18:49.836Z,11.95
2022-11-23T23:21:19.402Z,12.70
2022-11-23T23:23:48.776Z,10.20
2022-11-23T23:26:17.853Z,7.95
2022-11-23T23:28:45.806Z,8.50
2022-11-23T23:31:16.309Z,6.95
2022-11-23T23:33:45.688Z,10.05
2022-11-23T23:36:17.985Z,9.40
2022-11-23T23:38:44.981Z,13.23
2022-11-23T23:41:13.100Z,7.60
2022-11-23T23:43:40.838Z,7.07
2022-11-23T23:46:10.142Z,7.43
2022-11-23T23:48:39.637Z,6.55
2022-11-23T23:51:14.791Z,8.63
2022-11-23T23:53:42.661Z,9.50
2022-11-23T23:56:15.867Z,6.88
2022-11-23T23:58:43.243Z,5.80
